OIBQ

Kharg Airport

Airport
ICAO code
OIBQ
IATA Code
KHK
Summary
ICAO Region
APAC
ICAO Territory
Location

Kharg, Bushehr

Serving
Kharg Island
Elevation
29 ft
Coordinates
29° 15' 14" N , 50° 19' 35" E
KCC
Metar
Observation
OIBQ 061500Z 11010KT 2000 -RA FEW030CB BKN035 OVC070 19/17 Q1017 A3006
Station
KHARK ISLAND
Date/Time
2022-12-06 15:00:00
Wind direction
110°
Wind speed
10 kts
Lowest cloud amount
few clouds
Temperature
19°C
Dew point
17°C
Humidity
88%
QNH
1017 hPa
Weather condition
n/a

Climatology

Warm desert climate (Köppen climate classification BWh)

Runways

Designator Length Width Surface Rops
14/32 1805 45 ASP No/No

Airport map

Aerial View

Airport accidents

SKYbrary Partners:

Safety knowledge contributed by: